sensor_id;sensor_type;location;lat;lon;timestamp;temperature;humidity
14771;DHT22;7477;45.222;5.688;2023-05-31T00:00:07;19.10;99.90
14771;DHT22;7477;45.222;5.688;2023-05-31T00:03:26;19.10;99.90
14771;DHT22;7477;45.222;5.688;2023-05-31T00:06:45;19.00;99.90
14771;DHT22;7477;45.222;5.688;2023-05-31T00:10:04;18.90;99.90
14771;DHT22;7477;45.222;5.688;2023-05-31T00:13:23;18.60;99.90
14771;DHT22;7477;45.222;5.688;2023-05-31T00:16:42;18.90;99.90
14771;DHT22;7477;45.222;5.688;2023-05-31T00:20:02;18.90;99.90
14771;DHT22;7477;45.222;5.688;2023-05-31T00:23:21;18.80;99.90
14771;DHT22;7477;45.222;5.688;2023-05-31T00:26:40;18.80;99.90
14771;DHT22;7477;45.222;5.688;2023-05-31T00:29:59;18.70;99.90
14771;DHT22;7477;45.222;5.688;2023-05-31T00:33:18;18.70;99.90
14771;DHT22;7477;45.222;5.688;2023-05-31T00:36:38;18.70;99.90
14771;DHT22;7477;45.222;5.688;2023-05-31T00:39:57;18.70;99.90
14771;DHT22;7477;45.222;5.688;2023-05-31T00:43:16;18.60;99.90
14771;DHT22;7477;45.222;5.688;2023-05-31T00:46:37;18.50;99.90
14771;DHT22;7477;45.222;5.688;2023-05-31T00:49:58;18.50;99.90
14771;DHT22;7477;45.222;5.688;2023-05-31T00:53:18;18.40;99.90
14771;DHT22;7477;45.222;5.688;2023-05-31T00:56:37;18.40;99.90
14771;DHT22;7477;45.222;5.688;2023-05-31T00:59:57;18.50;99.90
14771;DHT22;7477;45.222;5.688;2023-05-31T01:03:17;18.60;99.90
14771;DHT22;7477;45.222;5.688;2023-05-31T01:06:38;18.70;99.90
14771;DHT22;7477;45.222;5.688;2023-05-31T01:09:58;18.70;99.90
14771;DHT22;7477;45.222;5.688;2023-05-31T01:13:38;18.70;99.90
14771;DHT22;7477;45.222;5.688;2023-05-31T01:17:14;18.60;99.90
14771;DHT22;7477;45.222;5.688;2023-05-31T01:20:36;18.70;99.90
14771;DHT22;7477;45.222;5.688;2023-05-31T01:24:26;18.70;99.90
14771;DHT22;7477;45.222;5.688;2023-05-31T01:27:52;18.80;99.90
14771;DHT22;7477;45.222;5.688;2023-05-31T01:31:18;18.70;99.90
14771;DHT22;7477;45.222;5.688;2023-05-31T01:34:38;18.70;99.90
14771;DHT22;7477;45.222;5.688;2023-05-31T01:37:58;18.60;99.90
14771;DHT22;7477;45.222;5.688;2023-05-31T01:41:17;18.50;99.90
14771;DHT22;7477;45.222;5.688;2023-05-31T01:44:39;18.50;99.90
14771;DHT22;7477;45.222;5.688;2023-05-31T01:48:02;18.40;99.90
14771;DHT22;7477;45.222;5.688;2023-05-31T01:51:22;18.30;99.90
14771;DHT22;7477;45.222;5.688;2023-05-31T01:54:42;18.30;99.90
14771;DHT22;7477;45.222;5.688;2023-05-31T01:58:02;18.20;99.90
14771;DHT22;7477;45.222;5.688;2023-05-31T02:01:22;18.20;99.90
14771;DHT22;7477;45.222;5.688;2023-05-31T02:04:42;18.20;99.90
14771;DHT22;7477;45.222;5.688;2023-05-31T02:08:01;18.20;99.90
14771;DHT22;7477;45.222;5.688;2023-05-31T02:11:20;18.10;99.90
14771;DHT22;7477;45.222;5.688;2023-05-31T02:14:39;18.10;99.90
14771;DHT22;7477;45.222;5.688;2023-05-31T02:17:58;18.00;99.90
14771;DHT22;7477;45.222;5.688;2023-05-31T02:21:17;18.00;99.90
14771;DHT22;7477;45.222;5.688;2023-05-31T02:24:37;17.90;99.90
14771;DHT22;7477;45.222;5.688;2023-05-31T02:27:56;17.80;99.90
14771;DHT22;7477;45.222;5.688;2023-05-31T02:31:17;17.80;99.90
14771;DHT22;7477;45.222;5.688;2023-05-31T02:34:37;17.70;99.90
14771;DHT22;7477;45.222;5.688;2023-05-31T02:37:56;17.70;99.90
14771;DHT22;7477;45.222;5.688;2023-05-31T02:41:15;17.60;99.90
14771;DHT22;7477;45.222;5.688;2023-05-31T02:44:34;17.60;99.90
14771;DHT22;7477;45.222;5.688;2023-05-31T02:47:53;17.60;99.90
14771;DHT22;7477;45.222;5.688;2023-05-31T02:51:14;17.50;99.90
14771;DHT22;7477;45.222;5.688;2023-05-31T02:54:33;17.50;99.90
14771;DHT22;7477;45.222;5.688;2023-05-31T02:57:52;17.50;99.90
14771;DHT22;7477;45.222;5.688;2023-05-31T03:01:12;17.40;99.90
14771;DHT22;7477;45.222;5.688;2023-05-31T03:04:32;17.40;99.90
14771;DHT22;7477;45.222;5.688;2023-05-31T03:07:52;17.40;99.90
14771;DHT22;7477;45.222;5.688;2023-05-31T03:11:12;17.30;99.90
14771;DHT22;7477;45.222;5.688;2023-05-31T03:14:31;17.20;99.90
14771;DHT22;7477;45.222;5.688;2023-05-31T03:17:51;17.20;99.90
14771;DHT22;7477;45.222;5.688;2023-05-31T03:21:10;17.20;99.90
14771;DHT22;7477;45.222;5.688;2023-05-31T03:24:30;17.10;99.90
14771;DHT22;7477;45.222;5.688;2023-05-31T03:27:49;17.10;99.90
14771;DHT22;7477;45.222;5.688;2023-05-31T03:31:09;17.00;99.90
14771;DHT22;7477;45.222;5.688;2023-05-31T03:34:28;17.00;99.90
14771;DHT22;7477;45.222;5.688;2023-05-31T03:37:48;17.00;99.90
14771;DHT22;7477;45.222;5.688;2023-05-31T03:41:07;16.90;99.90
14771;DHT22;7477;45.222;5.688;2023-05-31T03:44:26;17.00;99.90
14771;DHT22;7477;45.222;5.688;2023-05-31T03:47:45;16.90;99.90
14771;DHT22;7477;45.222;5.688;2023-05-31T03:51:05;16.90;99.90
14771;DHT22;7477;45.222;5.688;2023-05-31T03:54:24;16.80;99.90
14771;DHT22;7477;45.222;5.688;2023-05-31T03:57:44;16.80;99.90
14771;DHT22;7477;45.222;5.688;2023-05-31T04:01:03;16.80;99.90
14771;DHT22;7477;45.222;5.688;2023-05-31T04:04:23;16.70;99.90
14771;DHT22;7477;45.222;5.688;2023-05-31T04:07:42;16.70;99.90
14771;DHT22;7477;45.222;5.688;2023-05-31T04:11:01;16.60;99.90
14771;DHT22;7477;45.222;5.688;2023-05-31T04:14:21;16.60;99.90
14771;DHT22;7477;45.222;5.688;2023-05-31T04:17:40;16.70;99.90
14771;DHT22;7477;45.222;5.688;2023-05-31T04:20:59;16.60;99.90
14771;DHT22;7477;45.222;5.688;2023-05-31T04:24:18;16.60;99.90
14771;DHT22;7477;45.222;5.688;2023-05-31T04:27:39;16.60;99.90
14771;DHT22;7477;45.222;5.688;2023-05-31T04:30:59;16.60;99.90
14771;DHT22;7477;45.222;5.688;2023-05-31T04:34:19;16.50;99.90
14771;DHT22;7477;45.222;5.688;2023-05-31T04:37:39;16.50;99.90
14771;DHT22;7477;45.222;5.688;2023-05-31T04:40:58;16.60;99.90
14771;DHT22;7477;45.222;5.688;2023-05-31T04:44:19;16.50;99.90
14771;DHT22;7477;45.222;5.688;2023-05-31T04:47:38;16.50;99.90
14771;DHT22;7477;45.222;5.688;2023-05-31T04:50:57;16.50;99.90
14771;DHT22;7477;45.222;5.688;2023-05-31T04:54:18;16.50;99.90
14771;DHT22;7477;45.222;5.688;2023-05-31T04:57:37;16.50;99.90
14771;DHT22;7477;45.222;5.688;2023-05-31T05:00:56;16.50;99.90
14771;DHT22;7477;45.222;5.688;2023-05-31T05:04:16;16.60;99.90
14771;DHT22;7477;45.222;5.688;2023-05-31T05:07:35;16.50;99.90
14771;DHT22;7477;45.222;5.688;2023-05-31T05:10:54;16.50;99.90
14771;DHT22;7477;45.222;5.688;2023-05-31T05:14:14;16.50;99.90
14771;DHT22;7477;45.222;5.688;2023-05-31T05:17:33;16.50;99.90
14771;DHT22;7477;45.222;5.688;2023-05-31T05:20:52;16.50;99.90
14771;DHT22;7477;45.222;5.688;2023-05-31T05:24:11;16.50;99.90
14771;DHT22;7477;45.222;5.688;2023-05-31T05:27:30;16.60;99.90
14771;DHT22;7477;45.222;5.688;2023-05-31T05:30:50;16.60;99.90
14771;DHT22;7477;45.222;5.688;2023-05-31T05:34:09;16.60;99.90
14771;DHT22;7477;45.222;5.688;2023-05-31T05:37:28;16.60;99.90
14771;DHT22;7477;45.222;5.688;2023-05-31T05:40:48;16.60;99.90
14771;DHT22;7477;45.222;5.688;2023-05-31T05:44:07;16.60;99.90
14771;DHT22;7477;45.222;5.688;2023-05-31T05:47:26;16.60;99.90
14771;DHT22;7477;45.222;5.688;2023-05-31T05:50:45;16.60;99.90
14771;DHT22;7477;45.222;5.688;2023-05-31T05:54:04;16.60;99.90
14771;DHT22;7477;45.222;5.688;2023-05-31T05:57:25;16.60;99.90
14771;DHT22;7477;45.222;5.688;2023-05-31T06:00:45;16.60;99.90
14771;DHT22;7477;45.222;5.688;2023-05-31T06:04:04;16.60;99.90
14771;DHT22;7477;45.222;5.688;2023-05-31T06:07:23;16.70;99.90
14771;DHT22;7477;45.222;5.688;2023-05-31T06:10:42;16.70;99.90
14771;DHT22;7477;45.222;5.688;2023-05-31T06:14:01;16.80;99.90
14771;DHT22;7477;45.222;5.688;2023-05-31T06:17:20;16.80;99.90
14771;DHT22;7477;45.222;5.688;2023-05-31T06:20:40;16.80;99.90
14771;DHT22;7477;45.222;5.688;2023-05-31T06:24:01;16.90;99.90
14771;DHT22;7477;45.222;5.688;2023-05-31T06:27:21;16.90;99.90
14771;DHT22;7477;45.222;5.688;2023-05-31T06:30:40;16.90;99.90
14771;DHT22;7477;45.222;5.688;2023-05-31T06:34:00;17.00;99.90
14771;DHT22;7477;45.222;5.688;2023-05-31T06:37:20;17.00;99.90
14771;DHT22;7477;45.222;5.688;2023-05-31T06:40:42;17.10;99.90
14771;DHT22;7477;45.222;5.688;2023-05-31T06:44:02;17.20;99.90
14771;DHT22;7477;45.222;5.688;2023-05-31T06:47:22;17.30;99.90
14771;DHT22;7477;45.222;5.688;2023-05-31T06:50:41;17.30;99.90
14771;DHT22;7477;45.222;5.688;2023-05-31T06:54:00;17.40;99.90
14771;DHT22;7477;45.222;5.688;2023-05-31T06:57:19;17.40;99.90
14771;DHT22;7477;45.222;5.688;2023-05-31T07:00:38;17.40;99.90
14771;DHT22;7477;45.222;5.688;2023-05-31T07:03:57;17.50;99.90
14771;DHT22;7477;45.222;5.688;2023-05-31T07:07:17;17.50;99.90
14771;DHT22;7477;45.222;5.688;2023-05-31T07:10:36;17.60;99.90
14771;DHT22;7477;45.222;5.688;2023-05-31T07:13:56;17.60;99.90
14771;DHT22;7477;45.222;5.688;2023-05-31T07:17:20;17.70;99.90
14771;DHT22;7477;45.222;5.688;2023-05-31T07:20:39;17.80;99.90
14771;DHT22;7477;45.222;5.688;2023-05-31T07:23:59;17.80;99.90
14771;DHT22;7477;45.222;5.688;2023-05-31T07:27:19;17.90;99.90
14771;DHT22;7477;45.222;5.688;2023-05-31T07:30:38;18.00;99.90
14771;DHT22;7477;45.222;5.688;2023-05-31T07:33:57;17.90;99.90
14771;DHT22;7477;45.222;5.688;2023-05-31T07:37:16;18.00;99.90
14771;DHT22;7477;45.222;5.688;2023-05-31T07:40:35;18.10;99.90
14771;DHT22;7477;45.222;5.688;2023-05-31T07:43:55;18.20;99.90
14771;DHT22;7477;45.222;5.688;2023-05-31T07:47:15;18.20;99.90
14771;DHT22;7477;45.222;5.688;2023-05-31T07:50:34;18.20;99.90
14771;DHT22;7477;45.222;5.688;2023-05-31T07:53:54;18.30;99.90
14771;DHT22;7477;45.222;5.688;2023-05-31T07:57:13;18.40;99.90
14771;DHT22;7477;45.222;5.688;2023-05-31T08:00:33;18.40;99.90
14771;DHT22;7477;45.222;5.688;2023-05-31T08:03:54;18.50;99.90
14771;DHT22;7477;45.222;5.688;2023-05-31T08:07:13;18.60;99.90
14771;DHT22;7477;45.222;5.688;2023-05-31T08:10:33;18.50;99.90
14771;DHT22;7477;45.222;5.688;2023-05-31T08:13:52;18.60;99.90
14771;DHT22;7477;45.222;5.688;2023-05-31T08:17:11;18.60;99.90
14771;DHT22;7477;45.222;5.688;2023-05-31T08:20:30;18.60;99.90
14771;DHT22;7477;45.222;5.688;2023-05-31T08:23:50;18.70;99.90
14771;DHT22;7477;45.222;5.688;2023-05-31T08:27:10;18.80;99.90
14771;DHT22;7477;45.222;5.688;2023-05-31T08:30:29;18.80;99.90
14771;DHT22;7477;45.222;5.688;2023-05-31T08:33:57;18.90;99.90
14771;DHT22;7477;45.222;5.688;2023-05-31T08:37:17;18.90;99.90
14771;DHT22;7477;45.222;5.688;2023-05-31T08:40:36;19.00;99.90
14771;DHT22;7477;45.222;5.688;2023-05-31T08:43:55;19.00;99.90
14771;DHT22;7477;45.222;5.688;2023-05-31T08:48:00;19.00;99.90
14771;DHT22;7477;45.222;5.688;2023-05-31T08:51:13;18.90;99.90
14771;DHT22;7477;45.222;5.688;2023-05-31T08:54:34;18.90;99.90
14771;DHT22;7477;45.222;5.688;2023-05-31T08:57:56;19.00;99.90
14771;DHT22;7477;45.222;5.688;2023-05-31T09:01:20;19.00;99.90
14771;DHT22;7477;45.222;5.688;2023-05-31T09:04:40;19.00;99.90
14771;DHT22;7477;45.222;5.688;2023-05-31T09:08:00;19.00;99.90
14771;DHT22;7477;45.222;5.688;2023-05-31T09:11:19;19.00;99.90
14771;DHT22;7477;45.222;5.688;2023-05-31T09:14:39;19.10;99.90
14771;DHT22;7477;45.222;5.688;2023-05-31T09:18:14;19.10;99.90
14771;DHT22;7477;45.222;5.688;2023-05-31T09:21:39;19.20;99.90
14771;DHT22;7477;45.222;5.688;2023-05-31T09:25:00;19.20;99.90
14771;DHT22;7477;45.222;5.688;2023-05-31T09:28:21;19.30;99.90
14771;DHT22;7477;45.222;5.688;2023-05-31T09:31:40;19.20;99.90
14771;DHT22;7477;45.222;5.688;2023-05-31T09:35:10;19.20;99.90
14771;DHT22;7477;45.222;5.688;2023-05-31T09:38:32;19.30;99.90
14771;DHT22;7477;45.222;5.688;2023-05-31T09:41:52;19.30;99.90
14771;DHT22;7477;45.222;5.688;2023-05-31T09:45:11;19.20;99.90
14771;DHT22;7477;45.222;5.688;2023-05-31T09:48:30;19.30;99.90
14771;DHT22;7477;45.222;5.688;2023-05-31T09:51:50;19.40;99.90
14771;DHT22;7477;45.222;5.688;2023-05-31T09:55:15;19.50;99.90
14771;DHT22;7477;45.222;5.688;2023-05-31T09:58:35;19.50;99.90
14771;DHT22;7477;45.222;5.688;2023-05-31T10:01:54;19.50;99.90
14771;DHT22;7477;45.222;5.688;2023-05-31T10:05:15;19.70;99.90
14771;DHT22;7477;45.222;5.688;2023-05-31T10:08:34;19.80;99.90
14771;DHT22;7477;45.222;5.688;2023-05-31T10:11:56;19.80;99.90
14771;DHT22;7477;45.222;5.688;2023-05-31T10:15:21;19.60;99.90
14771;DHT22;7477;45.222;5.688;2023-05-31T10:18:44;19.70;99.90
14771;DHT22;7477;45.222;5.688;2023-05-31T10:22:06;19.80;99.90
14771;DHT22;7477;45.222;5.688;2023-05-31T10:25:44;19.80;99.90
14771;DHT22;7477;45.222;5.688;2023-05-31T10:32:34;20.30;99.90
14771;DHT22;7477;45.222;5.688;2023-05-31T10:36:00;20.10;99.90
14771;DHT22;7477;45.222;5.688;2023-05-31T10:39:36;19.90;99.90
14771;DHT22;7477;45.222;5.688;2023-05-31T10:43:03;19.80;99.90
14771;DHT22;7477;45.222;5.688;2023-05-31T10:46:26;19.70;99.90
14771;DHT22;7477;45.222;5.688;2023-05-31T10:49:49;19.80;99.90
14771;DHT22;7477;45.222;5.688;2023-05-31T10:53:11;19.80;99.90
14771;DHT22;7477;45.222;5.688;2023-05-31T10:56:31;19.80;99.90
14771;DHT22;7477;45.222;5.688;2023-05-31T10:59:50;19.80;99.90
14771;DHT22;7477;45.222;5.688;2023-05-31T11:03:09;19.90;99.90
14771;DHT22;7477;45.222;5.688;2023-05-31T11:06:31;20.00;99.90
14771;DHT22;7477;45.222;5.688;2023-05-31T11:09:55;20.00;99.90
14771;DHT22;7477;45.222;5.688;2023-05-31T11:13:19;20.10;99.90
14771;DHT22;7477;45.222;5.688;2023-05-31T11:20:15;20.10;99.90
14771;DHT22;7477;45.222;5.688;2023-05-31T11:23:35;20.00;99.90
14771;DHT22;7477;45.222;5.688;2023-05-31T11:26:59;20.00;99.90
14771;DHT22;7477;45.222;5.688;2023-05-31T11:30:19;20.10;99.90
14771;DHT22;7477;45.222;5.688;2023-05-31T11:33:45;20.10;99.90
14771;DHT22;7477;45.222;5.688;2023-05-31T11:37:05;20.10;99.90
14771;DHT22;7477;45.222;5.688;2023-05-31T11:40:24;20.10;99.90
14771;DHT22;7477;45.222;5.688;2023-05-31T11:43:44;20.10;99.90
14771;DHT22;7477;45.222;5.688;2023-05-31T11:47:10;20.10;99.90
14771;DHT22;7477;45.222;5.688;2023-05-31T11:50:31;20.20;99.90
14771;DHT22;7477;45.222;5.688;2023-05-31T11:53:50;20.30;99.90
14771;DHT22;7477;45.222;5.688;2023-05-31T11:57:17;20.50;99.90
14771;DHT22;7477;45.222;5.688;2023-05-31T12:00:44;20.40;99.90
14771;DHT22;7477;45.222;5.688;2023-05-31T12:04:03;20.40;99.90
14771;DHT22;7477;45.222;5.688;2023-05-31T12:07:22;20.30;99.90
14771;DHT22;7477;45.222;5.688;2023-05-31T12:10:42;20.50;99.90
14771;DHT22;7477;45.222;5.688;2023-05-31T12:14:01;20.40;99.90
14771;DHT22;7477;45.222;5.688;2023-05-31T12:17:21;20.40;99.90
14771;DHT22;7477;45.222;5.688;2023-05-31T12:20:42;20.30;99.90
14771;DHT22;7477;45.222;5.688;2023-05-31T12:24:14;20.40;99.90
14771;DHT22;7477;45.222;5.688;2023-05-31T12:27:34;20.40;99.90
14771;DHT22;7477;45.222;5.688;2023-05-31T12:30:54;20.40;99.90
14771;DHT22;7477;45.222;5.688;2023-05-31T12:34:18;20.40;99.90
14771;DHT22;7477;45.222;5.688;2023-05-31T12:37:39;20.40;99.90
14771;DHT22;7477;45.222;5.688;2023-05-31T12:41:01;20.50;99.90
14771;DHT22;7477;45.222;5.688;2023-05-31T12:44:21;20.50;99.90
14771;DHT22;7477;45.222;5.688;2023-05-31T12:47:41;20.50;99.90
14771;DHT22;7477;45.222;5.688;2023-05-31T12:51:04;20.50;99.90
14771;DHT22;7477;45.222;5.688;2023-05-31T12:54:25;21.70;99.90
14771;DHT22;7477;45.222;5.688;2023-05-31T12:57:44;22.10;99.90
14771;DHT22;7477;45.222;5.688;2023-05-31T13:01:04;22.00;99.90
14771;DHT22;7477;45.222;5.688;2023-05-31T13:04:24;22.10;99.90
14771;DHT22;7477;45.222;5.688;2023-05-31T13:07:44;21.80;99.90
14771;DHT22;7477;45.222;5.688;2023-05-31T13:11:04;21.40;99.90
14771;DHT22;7477;45.222;5.688;2023-05-31T13:14:24;21.10;99.90
14771;DHT22;7477;45.222;5.688;2023-05-31T13:17:43;21.00;99.90
14771;DHT22;7477;45.222;5.688;2023-05-31T13:21:03;21.90;99.90
14771;DHT22;7477;45.222;5.688;2023-05-31T13:24:22;21.50;99.90
14771;DHT22;7477;45.222;5.688;2023-05-31T13:27:42;22.40;99.90
14771;DHT22;7477;45.222;5.688;2023-05-31T13:31:01;22.30;99.90
14771;DHT22;7477;45.222;5.688;2023-05-31T13:34:20;21.90;99.90
14771;DHT22;7477;45.222;5.688;2023-05-31T13:37:40;22.30;99.90
14771;DHT22;7477;45.222;5.688;2023-05-31T13:40:59;22.30;99.90
14771;DHT22;7477;45.222;5.688;2023-05-31T13:44:18;22.90;98.00
14771;DHT22;7477;45.222;5.688;2023-05-31T13:47:38;23.10;97.20
14771;DHT22;7477;45.222;5.688;2023-05-31T13:50:57;23.10;96.80
14771;DHT22;7477;45.222;5.688;2023-05-31T13:54:17;23.10;97.20
14771;DHT22;7477;45.222;5.688;2023-05-31T13:57:36;22.40;99.20
14771;DHT22;7477;45.222;5.688;2023-05-31T14:00:55;22.30;99.70
14771;DHT22;7477;45.222;5.688;2023-05-31T14:04:14;22.90;98.40
14771;DHT22;7477;45.222;5.688;2023-05-31T14:07:33;23.10;98.30
14771;DHT22;7477;45.222;5.688;2023-05-31T14:10:53;23.10;98.40
14771;DHT22;7477;45.222;5.688;2023-05-31T14:14:12;23.70;97.10
14771;DHT22;7477;45.222;5.688;2023-05-31T14:17:32;24.00;96.00
14771;DHT22;7477;45.222;5.688;2023-05-31T14:20:52;24.10;94.60
14771;DHT22;7477;45.222;5.688;2023-05-31T14:24:11;24.30;93.70
14771;DHT22;7477;45.222;5.688;2023-05-31T14:27:30;24.00;94.20
14771;DHT22;7477;45.222;5.688;2023-05-31T14:30:49;23.90;93.70
14771;DHT22;7477;45.222;5.688;2023-05-31T14:34:08;23.90;94.30
14771;DHT22;7477;45.222;5.688;2023-05-31T14:37:27;24.00;94.20
14771;DHT22;7477;45.222;5.688;2023-05-31T14:40:47;24.20;93.40
14771;DHT22;7477;45.222;5.688;2023-05-31T14:44:06;24.10;94.00
14771;DHT22;7477;45.222;5.688;2023-05-31T14:47:25;24.10;93.50
14771;DHT22;7477;45.222;5.688;2023-05-31T14:50:44;24.00;93.20
14771;DHT22;7477;45.222;5.688;2023-05-31T14:54:03;23.80;93.50
14771;DHT22;7477;45.222;5.688;2023-05-31T14:57:24;23.80;93.70
14771;DHT22;7477;45.222;5.688;2023-05-31T15:00:43;23.90;94.00
14771;DHT22;7477;45.222;5.688;2023-05-31T15:04:03;24.10;93.40
14771;DHT22;7477;45.222;5.688;2023-05-31T15:07:22;23.80;93.40
14771;DHT22;7477;45.222;5.688;2023-05-31T15:10:41;23.60;93.50
14771;DHT22;7477;45.222;5.688;2023-05-31T15:14:02;23.50;94.10
14771;DHT22;7477;45.222;5.688;2023-05-31T15:17:22;23.50;93.50
14771;DHT22;7477;45.222;5.688;2023-05-31T15:20:41;23.40;93.70
14771;DHT22;7477;45.222;5.688;2023-05-31T15:24:00;23.80;93.10
14771;DHT22;7477;45.222;5.688;2023-05-31T15:27:19;23.90;92.60
14771;DHT22;7477;45.222;5.688;2023-05-31T15:30:38;23.80;92.60
14771;DHT22;7477;45.222;5.688;2023-05-31T15:33:58;23.80;92.30
14771;DHT22;7477;45.222;5.688;2023-05-31T15:37:17;23.70;92.60
14771;DHT22;7477;45.222;5.688;2023-05-31T15:40:36;23.50;91.90
14771;DHT22;7477;45.222;5.688;2023-05-31T15:43:55;23.40;92.40
14771;DHT22;7477;45.222;5.688;2023-05-31T15:47:16;23.30;92.30
14771;DHT22;7477;45.222;5.688;2023-05-31T15:50:35;23.20;92.60
14771;DHT22;7477;45.222;5.688;2023-05-31T15:53:54;23.10;92.80
14771;DHT22;7477;45.222;5.688;2023-05-31T15:57:14;23.00;93.70
14771;DHT22;7477;45.222;5.688;2023-05-31T16:00:33;22.90;96.40
14771;DHT22;7477;45.222;5.688;2023-05-31T16:03:52;22.90;97.80
14771;DHT22;7477;45.222;5.688;2023-05-31T16:07:12;22.70;97.40
14771;DHT22;7477;45.222;5.688;2023-05-31T16:10:32;22.50;97.50
14771;DHT22;7477;45.222;5.688;2023-05-31T16:13:51;22.30;98.40
14771;DHT22;7477;45.222;5.688;2023-05-31T16:17:11;21.80;98.20
14771;DHT22;7477;45.222;5.688;2023-05-31T16:20:30;21.60;98.40
14771;DHT22;7477;45.222;5.688;2023-05-31T16:23:49;21.60;99.00
14771;DHT22;7477;45.222;5.688;2023-05-31T16:27:09;21.70;99.80
14771;DHT22;7477;45.222;5.688;2023-05-31T16:30:28;21.60;99.90
14771;DHT22;7477;45.222;5.688;2023-05-31T16:33:48;21.50;99.90
14771;DHT22;7477;45.222;5.688;2023-05-31T16:37:07;21.40;99.70
14771;DHT22;7477;45.222;5.688;2023-05-31T16:40:27;21.30;99.10
14771;DHT22;7477;45.222;5.688;2023-05-31T16:43:46;21.30;99.10
14771;DHT22;7477;45.222;5.688;2023-05-31T16:47:05;21.30;99.30
14771;DHT22;7477;45.222;5.688;2023-05-31T16:50:25;21.40;99.80
14771;DHT22;7477;45.222;5.688;2023-05-31T16:53:44;21.40;99.90
14771;DHT22;7477;45.222;5.688;2023-05-31T16:57:04;21.40;99.90
14771;DHT22;7477;45.222;5.688;2023-05-31T17:00:24;21.20;99.90
14771;DHT22;7477;45.222;5.688;2023-05-31T17:03:44;21.20;99.90
14771;DHT22;7477;45.222;5.688;2023-05-31T17:07:04;21.00;99.90
14771;DHT22;7477;45.222;5.688;2023-05-31T17:10:23;20.90;99.90
14771;DHT22;7477;45.222;5.688;2023-05-31T17:13:42;20.70;99.90
14771;DHT22;7477;45.222;5.688;2023-05-31T17:17:02;20.50;99.90
14771;DHT22;7477;45.222;5.688;2023-05-31T17:20:22;20.60;99.90
14771;DHT22;7477;45.222;5.688;2023-05-31T17:23:40;20.30;99.90
14771;DHT22;7477;45.222;5.688;2023-05-31T17:27:00;20.40;99.90
14771;DHT22;7477;45.222;5.688;2023-05-31T17:30:19;20.40;99.90
14771;DHT22;7477;45.222;5.688;2023-05-31T17:33:44;20.50;99.90
14771;DHT22;7477;45.222;5.688;2023-05-31T17:37:03;20.60;99.90
14771;DHT22;7477;45.222;5.688;2023-05-31T17:40:23;20.40;99.90
14771;DHT22;7477;45.222;5.688;2023-05-31T17:43:42;20.40;99.90
14771;DHT22;7477;45.222;5.688;2023-05-31T17:47:01;20.40;99.90
14771;DHT22;7477;45.222;5.688;2023-05-31T17:50:20;20.70;99.90
14771;DHT22;7477;45.222;5.688;2023-05-31T17:53:40;20.70;99.90
14771;DHT22;7477;45.222;5.688;2023-05-31T17:57:00;20.20;99.90
14771;DHT22;7477;45.222;5.688;2023-05-31T18:00:19;20.10;99.90
14771;DHT22;7477;45.222;5.688;2023-05-31T18:03:39;20.40;99.90
14771;DHT22;7477;45.222;5.688;2023-05-31T18:06:58;20.50;99.90
14771;DHT22;7477;45.222;5.688;2023-05-31T18:10:18;20.40;99.90
14771;DHT22;7477;45.222;5.688;2023-05-31T18:13:37;20.10;99.90
14771;DHT22;7477;45.222;5.688;2023-05-31T18:16:57;20.00;99.90
14771;DHT22;7477;45.222;5.688;2023-05-31T18:20:16;20.00;99.90
14771;DHT22;7477;45.222;5.688;2023-05-31T18:23:36;19.80;99.90
14771;DHT22;7477;45.222;5.688;2023-05-31T18:27:15;19.70;99.90
14771;DHT22;7477;45.222;5.688;2023-05-31T18:30:34;19.60;99.90
14771;DHT22;7477;45.222;5.688;2023-05-31T18:33:53;19.50;99.90
14771;DHT22;7477;45.222;5.688;2023-05-31T18:37:15;19.50;99.90
14771;DHT22;7477;45.222;5.688;2023-05-31T18:40:34;19.50;99.90
14771;DHT22;7477;45.222;5.688;2023-05-31T18:43:54;19.60;99.90
14771;DHT22;7477;45.222;5.688;2023-05-31T18:47:13;19.60;99.90
14771;DHT22;7477;45.222;5.688;2023-05-31T18:50:33;19.80;99.90
14771;DHT22;7477;45.222;5.688;2023-05-31T18:53:52;19.80;99.90
14771;DHT22;7477;45.222;5.688;2023-05-31T18:57:11;19.70;99.90
14771;DHT22;7477;45.222;5.688;2023-05-31T19:00:31;19.70;99.90
14771;DHT22;7477;45.222;5.688;2023-05-31T19:03:50;19.60;99.90
14771;DHT22;7477;45.222;5.688;2023-05-31T19:07:11;19.70;99.90
14771;DHT22;7477;45.222;5.688;2023-05-31T19:10:31;19.80;99.90
14771;DHT22;7477;45.222;5.688;2023-05-31T19:13:50;19.90;99.90
14771;DHT22;7477;45.222;5.688;2023-05-31T19:17:10;19.80;99.90
14771;DHT22;7477;45.222;5.688;2023-05-31T19:20:29;20.00;99.90
14771;DHT22;7477;45.222;5.688;2023-05-31T19:23:48;19.90;99.90
14771;DHT22;7477;45.222;5.688;2023-05-31T19:27:07;19.90;99.90
14771;DHT22;7477;45.222;5.688;2023-05-31T19:30:26;19.30;99.90
14771;DHT22;7477;45.222;5.688;2023-05-31T19:33:46;18.90;99.90
14771;DHT22;7477;45.222;5.688;2023-05-31T19:37:06;18.90;99.90
14771;DHT22;7477;45.222;5.688;2023-05-31T19:40:25;18.90;99.90
14771;DHT22;7477;45.222;5.688;2023-05-31T19:43:45;18.80;99.90
14771;DHT22;7477;45.222;5.688;2023-05-31T19:47:04;18.60;99.90
14771;DHT22;7477;45.222;5.688;2023-05-31T19:50:23;18.60;99.90
14771;DHT22;7477;45.222;5.688;2023-05-31T19:53:43;18.60;99.90
14771;DHT22;7477;45.222;5.688;2023-05-31T19:57:03;18.60;99.90
14771;DHT22;7477;45.222;5.688;2023-05-31T20:00:23;18.50;99.90
14771;DHT22;7477;45.222;5.688;2023-05-31T20:03:42;18.60;99.90
14771;DHT22;7477;45.222;5.688;2023-05-31T20:07:01;18.60;99.90
14771;DHT22;7477;45.222;5.688;2023-05-31T20:10:20;18.60;99.90
14771;DHT22;7477;45.222;5.688;2023-05-31T20:13:41;18.60;99.90
14771;DHT22;7477;45.222;5.688;2023-05-31T20:17:00;18.50;99.90
14771;DHT22;7477;45.222;5.688;2023-05-31T20:20:20;18.50;99.90
14771;DHT22;7477;45.222;5.688;2023-05-31T20:23:40;18.60;99.90
14771;DHT22;7477;45.222;5.688;2023-05-31T20:26:59;18.60;99.90
14771;DHT22;7477;45.222;5.688;2023-05-31T20:30:19;18.60;99.90
14771;DHT22;7477;45.222;5.688;2023-05-31T20:33:38;18.60;99.90
14771;DHT22;7477;45.222;5.688;2023-05-31T20:36:58;18.60;99.90
14771;DHT22;7477;45.222;5.688;2023-05-31T20:40:17;18.50;99.90
14771;DHT22;7477;45.222;5.688;2023-05-31T20:43:37;18.40;99.90
14771;DHT22;7477;45.222;5.688;2023-05-31T20:46:56;18.40;99.90
14771;DHT22;7477;45.222;5.688;2023-05-31T20:50:15;18.40;99.90
14771;DHT22;7477;45.222;5.688;2023-05-31T20:53:35;18.40;99.90
14771;DHT22;7477;45.222;5.688;2023-05-31T20:56:55;18.30;99.90
14771;DHT22;7477;45.222;5.688;2023-05-31T21:00:15;18.20;99.90
14771;DHT22;7477;45.222;5.688;2023-05-31T21:03:36;18.20;99.90
14771;DHT22;7477;45.222;5.688;2023-05-31T21:06:55;18.20;99.90
14771;DHT22;7477;45.222;5.688;2023-05-31T21:10:14;18.20;99.90
14771;DHT22;7477;45.222;5.688;2023-05-31T21:13:34;18.10;99.90
14771;DHT22;7477;45.222;5.688;2023-05-31T21:16:54;18.00;99.90
14771;DHT22;7477;45.222;5.688;2023-05-31T21:20:13;18.00;99.90
14771;DHT22;7477;45.222;5.688;2023-05-31T21:23:32;18.00;99.90
14771;DHT22;7477;45.222;5.688;2023-05-31T21:26:52;18.00;99.90
14771;DHT22;7477;45.222;5.688;2023-05-31T21:30:11;17.90;99.90